Майский споттинг в Домодедово, в работе полоса 32Л.
Снимал с новой точки, забора нет.
METAR: UUDD 101530Z 27005MPS 9999 BKN043CB 06/M02 Q1003 R88/010095 NOSIG
TAF: UUDD 101358Z 1015/1121 24005MPS 9999 BKN015 TX09/1111Z TNM01/1102Z TEMPO 1015/1024 29010MPS 2300 -SHRASN SCT004 BKN015CB PROB40 TEMPO 1015/1020 -TSRASN BKN012CB TEMPO 1111/1121 28012MPS 2100 -SHRASN SCT004 BKN015CB
SONY HDR-CX530E. 10.05.2017
→ Имя файла:
→ Дата: 6 месяцев назад (10.05.2017 19:07)
→ Автор:
→ Прислал: diems (прислал 38 файлов )
→ Разрешил модератор: daditto
→ Лицензия: Freeware - Бесплатная версия, распространение не ограничено
+1
 5 
Хорошая погода, хорошее видео) Anton27, 6 месяцев назад, #
 5 
Отлично. ert33, 6 месяцев назад, #

Чтобы получить возможность оставления комментариев, пожалуйста сначала авторизуйтесь на сайте.